Urb Cataluna, Puerto Rico
Current Conditions -  °F | °C
As of 5:56 AM on Saturday 01 Nov 2014 (Local Time) from TJSJ Reporting Station
Scattered Clouds Scattered Clouds  
Wind Chill: 79°   Ceiling: Unl
Heat Index: 83°   Visibility: 10mi
Dew Point: 76°   Wind: 0mph
Humidity: 90%   Direction: NA
Pressure: 29.93"   Gusts: NA
Location:  18.4548°N, 66.5389°W
Report Text: TJSJ 010956Z 00000KT 10SM FEW033 SCT060 26/24 A2993 RMK AO2 SLP133 T02610244
Loading
Personal Weather Stations






























Interactive Weather Map
Tropical Storm Tracking
New forecast layout! Learn more

10-Day Weather Forecast

Advertisements
Track Severe Weather on mobile